West Irvine, Kentucky
Current Conditions -  °F | °C
As of 5:35 PM on Sunday 21 Dec 2014 (Local Time) from KI39 Reporting Station
Clear Clear  
Wind Chill: 39°   Ceiling: Unl
Heat Index: 39°   Visibility: 10mi
Dew Point: 27°   Wind: 3mph
Humidity: 61%   Direction: 70°ENE
Pressure: 30.13"   Gusts: NA
Location:  37.6427°N, 83.9998°W
Report Text: KI39 212235Z AUTO 07003KT 10SM CLR 04/M03 A3013 RMK AO2
Loading
Personal Weather Stations






























Interactive Weather Map New forecast layout! Learn more

10-Day Weather Forecast

Advertisements
Track Severe Weather on mobile